createdAt,value
2022-12-19T00:01:26.303Z,29.08
2022-12-19T00:03:55.804Z,28.20
2022-12-19T00:06:23.038Z,27.83
2022-12-19T00:08:50.989Z,29.90
2022-12-19T00:11:19.027Z,27.55
2022-12-19T00:13:45.601Z,26.65
2022-12-19T00:16:14.772Z,27.83
2022-12-19T00:18:45.079Z,27.48
2022-12-19T00:21:16.849Z,27.92
2022-12-19T00:23:43.845Z,28.33
2022-12-19T00:26:14.395Z,28.45
2022-12-19T00:28:42.178Z,26.40
2022-12-19T00:31:12.896Z,27.77
2022-12-19T00:33:43.280Z,28.13
2022-12-19T00:36:21.830Z,29.17
2022-12-19T00:38:49.692Z,27.83
2022-12-19T00:41:18.410Z,29.05
2022-12-19T00:43:45.106Z,31.30
2022-12-19T00:46:13.849Z,29.52
2022-12-19T00:48:40.677Z,30.98
2022-12-19T00:51:10.834Z,31.73
2022-12-19T00:53:37.474Z,29.23
2022-12-19T00:56:06.140Z,28.20
2022-12-19T00:58:35.497Z,29.13
2022-12-19T01:01:07.440Z,29.27
2022-12-19T01:03:34.178Z,29.15
2022-12-19T01:06:00.792Z,27.38
2022-12-19T01:08:27.137Z,28.73
2022-12-19T01:10:54.896Z,26.58
2022-12-19T01:13:22.354Z,29.40
2022-12-19T01:15:49.066Z,28.67
2022-12-19T01:18:15.563Z,28.95
2022-12-19T01:20:43.922Z,28.30
2022-12-19T01:23:10.892Z,29.48
2022-12-19T01:25:38.091Z,30.52
2022-12-19T01:28:07.874Z,28.38
2022-12-19T01:30:35.386Z,31.83
2022-12-19T01:33:01.984Z,32.08
2022-12-19T01:35:28.404Z,28.92
2022-12-19T01:38:01.509Z,30.83
2022-12-19T01:40:35.100Z,30.27
2022-12-19T01:43:02.136Z,30.42
2022-12-19T01:45:34.506Z,28.88
2022-12-19T01:48:05.191Z,30.25
2022-12-19T01:50:36.511Z,28.80
2022-12-19T01:53:03.509Z,30.75
2022-12-19T01:55:30.036Z,30.38
2022-12-19T01:57:56.631Z,30.90
2022-12-19T02:00:23.197Z,30.75
2022-12-19T02:03:13.082Z,33.47
2022-12-19T02:05:40.091Z,31.48
2022-12-19T02:08:07.257Z,32.60
2022-12-19T02:10:34.199Z,33.65
2022-12-19T02:13:00.595Z,31.48
2022-12-19T02:15:29.419Z,32.40
2022-12-19T02:18:12.462Z,32.78
2022-12-19T02:21:14.555Z,31.38
2022-12-19T02:23:46.752Z,32.17
2022-12-19T02:26:39.644Z,31.65
2022-12-19T02:29:21.039Z,30.92
2022-12-19T02:31:57.423Z,32.53
2022-12-19T02:34:33.158Z,32.15
2022-12-19T02:37:07.072Z,31.15
2022-12-19T02:39:48.331Z,31.55
2022-12-19T02:42:20.526Z,32.22
2022-12-19T02:44:52.295Z,32.53
2022-12-19T02:47:21.225Z,30.52
2022-12-19T02:49:47.578Z,31.50
2022-12-19T02:52:19.739Z,31.38
2022-12-19T02:54:47.980Z,31.98
2022-12-19T02:57:30.118Z,31.80
2022-12-19T03:00:05.791Z,30.52
2022-12-19T03:02:38.773Z,31.48
2022-12-19T03:05:27.382Z,31.33
2022-12-19T03:08:04.961Z,30.50
2022-12-19T03:10:45.157Z,32.63
2022-12-19T03:13:14.652Z,32.40
2022-12-19T03:15:41.273Z,30.60
2022-12-19T03:18:08.348Z,31.60
2022-12-19T03:20:48.081Z,32.25
2022-12-19T03:23:14.836Z,31.27
2022-12-19T03:25:43.604Z,31.30
2022-12-19T03:28:20.673Z,31.45
2022-12-19T03:30:47.181Z,28.67
2022-12-19T03:33:13.875Z,32.75
2022-12-19T03:35:41.500Z,33.60
2022-12-19T03:38:09.784Z,32.25
2022-12-19T03:40:37.141Z,33.95
2022-12-19T03:43:12.025Z,33.17
2022-12-19T03:46:01.319Z,31.85
2022-12-19T03:48:42.072Z,30.98
2022-12-19T03:51:32.188Z,31.17
2022-12-19T03:54:07.344Z,30.02
2022-12-19T03:56:51.288Z,31.67
2022-12-19T03:59:44.784Z,31.70
2022-12-19T04:02:13.179Z,31.58
2022-12-19T04:04:42.576Z,30.70
2022-12-19T04:07:09.154Z,28.73
2022-12-19T04:09:36.937Z,31.15
2022-12-19T04:12:06.969Z,30.60
2022-12-19T04:14:35.829Z,30.88
2022-12-19T04:17:32.996Z,31.40
2022-12-19T04:20:07.526Z,29.15
2022-12-19T04:22:42.807Z,29.17
2022-12-19T04:25:17.198Z,29.92
2022-12-19T04:27:47.427Z,30.75
2022-12-19T04:30:16.886Z,31.60
2022-12-19T04:32:43.369Z,30.75
2022-12-19T04:35:09.938Z,30.60
2022-12-19T04:37:36.474Z,30.55
2022-12-19T04:40:03.451Z,30.42
2022-12-19T04:42:29.782Z,32.90
2022-12-19T04:44:56.130Z,30.77
2022-12-19T04:47:22.700Z,31.55
2022-12-19T04:49:49.104Z,29.83
2022-12-19T04:52:15.468Z,31.75
2022-12-19T04:54:41.800Z,30.10
2022-12-19T04:57:08.211Z,30.73
2022-12-19T04:59:34.768Z,31.90
2022-12-19T05:02:01.211Z,30.90
2022-12-19T05:04:27.732Z,29.38
2022-12-19T05:06:54.430Z,30.40
2022-12-19T05:09:20.798Z,31.83
2022-12-19T05:11:47.153Z,31.05
2022-12-19T05:14:13.485Z,29.45
2022-12-19T05:16:39.802Z,28.35
2022-12-19T05:19:06.187Z,29.67
2022-12-19T05:21:32.749Z,32.40
2022-12-19T05:23:59.196Z,29.70
2022-12-19T05:26:25.787Z,32.65
2022-12-19T05:28:52.285Z,30.23
2022-12-19T05:31:20.426Z,30.00
2022-12-19T05:33:47.926Z,31.17
2022-12-19T05:36:16.544Z,30.55
2022-12-19T05:38:43.287Z,30.90
2022-12-19T05:41:11.904Z,30.30
2022-12-19T05:43:38.360Z,30.90
2022-12-19T05:46:05.939Z,32.42
2022-12-19T05:48:32.365Z,30.67
2022-12-19T05:50:58.739Z,31.52
2022-12-19T05:53:27.363Z,31.73
2022-12-19T05:56:06.295Z,32.75
2022-12-19T05:58:35.808Z,30.85
2022-12-19T06:01:06.292Z,32.47
2022-12-19T06:03:32.704Z,32.17
2022-12-19T06:06:03.019Z,31.15
2022-12-19T06:08:29.717Z,31.65
2022-12-19T06:10:58.716Z,31.70
2022-12-19T06:13:25.247Z,33.95
2022-12-19T06:16:00.634Z,32.30
2022-12-19T06:18:27.489Z,33.10
2022-12-19T06:21:01.231Z,30.00
2022-12-19T06:23:29.920Z,31.05
2022-12-19T06:25:57.612Z,31.92
2022-12-19T06:28:24.981Z,31.05
2022-12-19T06:30:51.399Z,32.65
2022-12-19T06:33:17.803Z,32.03
2022-12-19T06:35:44.231Z,32.25
2022-12-19T06:38:10.608Z,31.90
2022-12-19T06:41:02.227Z,32.40
2022-12-19T06:43:28.597Z,30.48
2022-12-19T06:45:57.052Z,32.33
2022-12-19T06:48:23.433Z,33.63
2022-12-19T06:50:49.775Z,32.97
2022-12-19T06:53:16.119Z,33.25
2022-12-19T06:55:42.685Z,31.73
2022-12-19T06:58:09.050Z,31.42
2022-12-19T07:00:36.240Z,30.88
2022-12-19T07:03:05.233Z,33.30
2022-12-19T07:05:31.790Z,33.90
2022-12-19T07:07:58.183Z,31.05
2022-12-19T07:10:24.632Z,32.67
2022-12-19T07:12:51.114Z,34.15
2022-12-19T07:15:17.765Z,32.47
2022-12-19T07:17:44.297Z,31.52
2022-12-19T07:20:11.643Z,32.63
2022-12-19T07:22:38.077Z,30.90
2022-12-19T07:25:06.069Z,32.80
2022-12-19T07:27:35.905Z,32.10
2022-12-19T07:30:03.672Z,34.13
2022-12-19T07:32:30.008Z,35.13
2022-12-19T07:34:56.341Z,31.55
2022-12-19T07:37:22.677Z,33.53
2022-12-19T07:39:49.202Z,33.55
2022-12-19T07:42:15.554Z,34.42
2022-12-19T07:44:41.996Z,35.35
2022-12-19T07:47:08.363Z,32.60
2022-12-19T07:49:34.795Z,34.55
2022-12-19T07:52:01.143Z,34.92
2022-12-19T07:54:27.527Z,33.00
2022-12-19T07:56:53.956Z,33.53
2022-12-19T07:59:24.417Z,34.22
2022-12-19T08:01:54.244Z,32.92
2022-12-19T08:04:20.788Z,31.83
2022-12-19T08:06:47.119Z,33.63
2022-12-19T08:09:13.569Z,34.72
2022-12-19T08:11:40.011Z,34.80
2022-12-19T08:14:06.351Z,33.08
2022-12-19T08:16:43.944Z,33.72
2022-12-19T08:19:22.372Z,31.73
2022-12-19T08:21:51.031Z,34.25
2022-12-19T08:24:17.375Z,32.67
2022-12-19T08:26:47.580Z,34.67
2022-12-19T08:29:14.382Z,33.38
2022-12-19T08:31:40.753Z,32.13
2022-12-19T08:34:07.139Z,34.20
2022-12-19T08:36:34.404Z,31.80
2022-12-19T08:39:00.758Z,46.38
2022-12-19T08:41:27.099Z,50.88
2022-12-19T08:43:54.371Z,50.95
2022-12-19T08:46:21.347Z,44.47
2022-12-19T08:48:47.834Z,38.00
2022-12-19T08:51:14.926Z,36.20
2022-12-19T08:53:43.134Z,31.58
2022-12-19T08:56:15.087Z,32.28
2022-12-19T08:58:41.761Z,33.90
2022-12-19T09:01:11.105Z,31.42
2022-12-19T09:03:59.828Z,28.85
2022-12-19T09:06:24.051Z,28.88
2022-12-19T09:08:50.705Z,31.13
2022-12-19T09:11:19.567Z,31.42
2022-12-19T09:13:47.845Z,30.90
2022-12-19T09:16:21.977Z,32.55
2022-12-19T09:18:53.514Z,33.95
2022-12-19T09:21:22.033Z,32.35
2022-12-19T09:23:53.867Z,33.50
2022-12-19T09:26:21.306Z,31.92
2022-12-19T09:28:49.771Z,32.50
2022-12-19T09:31:21.577Z,33.15
2022-12-19T09:33:48.276Z,33.03
2022-12-19T09:36:17.149Z,31.70
2022-12-19T09:38:43.579Z,34.50
2022-12-19T09:41:34.701Z,34.60
2022-12-19T09:44:22.598Z,32.33
2022-12-19T09:46:51.550Z,35.95
2022-12-19T09:49:21.549Z,33.13
2022-12-19T09:51:54.156Z,35.47
2022-12-19T09:54:26.346Z,42.42
2022-12-19T09:57:00.216Z,36.92
2022-12-19T10:02:25.698Z,39.13
2022-12-19T10:05:12.864Z,34.65
2022-12-19T10:08:07.068Z,32.97
2022-12-19T10:12:42.885Z,33.63
2022-12-19T10:14:33.301Z,33.33
2022-12-19T10:17:38.188Z,31.80
2022-12-19T10:20:39.927Z,32.05
2022-12-19T10:23:55.069Z,32.05
2022-12-19T10:29:17.832Z,33.22
2022-12-19T10:32:04.260Z,34.53
2022-12-19T10:34:38.599Z,35.33
2022-12-19T10:37:26.479Z,35.13
2022-12-19T10:40:27.318Z,35.28
2022-12-19T10:43:10.812Z,34.63
2022-12-19T10:45:50.005Z,32.95
2022-12-19T10:48:18.835Z,33.58
2022-12-19T10:50:48.234Z,34.95
2022-12-19T10:53:15.849Z,35.40
2022-12-19T10:55:46.411Z,33.80
2022-12-19T10:58:33.139Z,36.33
2022-12-19T11:01:12.554Z,36.05
2022-12-19T11:03:41.755Z,34.92
2022-12-19T11:06:37.026Z,33.78
2022-12-19T11:09:27.751Z,37.88
2022-12-19T11:15:29.815Z,34.35
2022-12-19T11:19:57.800Z,33.55
2022-12-19T11:22:16.224Z,34.50
2022-12-19T11:29:34.222Z,34.45
2022-12-19T11:29:39.219Z,35.00
2022-12-19T11:30:37.769Z,34.70
2022-12-19T11:32:42.400Z,33.47
2022-12-19T11:35:25.391Z,34.45
2022-12-19T11:38:05.903Z,35.67
2022-12-19T11:40:53.745Z,37.38
2022-12-19T11:43:55.294Z,33.95
2022-12-19T11:46:43.316Z,33.30
2022-12-19T11:49:38.847Z,34.35
2022-12-19T11:53:02.921Z,31.13
2022-12-19T11:55:24.804Z,34.03
2022-12-19T11:57:52.064Z,32.55
2022-12-19T12:00:21.117Z,34.35
2022-12-19T12:03:11.681Z,32.97
2022-12-19T12:05:47.769Z,33.90
2022-12-19T12:10:17.873Z,34.78
2022-12-19T12:20:04.385Z,37.55
2022-12-19T12:28:08.817Z,33.63
2022-12-19T12:30:59.231Z,31.80
2022-12-19T12:31:06.986Z,31.60
2022-12-19T12:31:45.377Z,34.95
2022-12-19T12:31:46.047Z,30.90
2022-12-19T12:31:56.210Z,35.20
2022-12-19T12:35:32.683Z,36.45
2022-12-19T12:37:55.897Z,32.67
2022-12-19T12:38:47.552Z,33.40
2022-12-19T12:41:45.551Z,33.92
2022-12-19T12:44:12.173Z,34.10
2022-12-19T12:47:00.023Z,32.33
2022-12-19T12:49:31.736Z,31.55
2022-12-19T12:51:59.792Z,32.60
2022-12-19T12:54:33.283Z,31.08
2022-12-19T12:56:59.664Z,37.42
2022-12-19T12:59:28.072Z,34.05
2022-12-19T13:01:59.749Z,34.00
2022-12-19T13:04:32.678Z,33.92
2022-12-19T13:07:11.164Z,35.00
2022-12-19T13:09:37.560Z,35.95
2022-12-19T13:12:40.715Z,33.08
2022-12-19T13:15:26.416Z,34.22
2022-12-19T13:17:52.647Z,34.05
2022-12-19T13:20:18.939Z,34.10
2022-12-19T13:23:02.705Z,36.42
2022-12-19T13:25:34.726Z,37.22
2022-12-19T13:28:01.110Z,33.33
2022-12-19T13:30:28.632Z,34.15
2022-12-19T13:32:54.939Z,31.35
2022-12-19T13:36:15.525Z,34.50
2022-12-19T13:39:58.210Z,31.90
2022-12-19T13:41:48.981Z,32.20
2022-12-19T13:44:20.150Z,32.78
2022-12-19T13:46:46.645Z,34.28
2022-12-19T13:49:32.859Z,34.47
2022-12-19T13:52:02.458Z,32.05
2022-12-19T13:54:32.837Z,32.38
2022-12-19T13:56:59.437Z,31.77
2022-12-19T13:59:34.074Z,30.95
2022-12-19T14:02:08.050Z,35.17
2022-12-19T14:04:34.527Z,36.85
2022-12-19T14:07:04.029Z,34.67
2022-12-19T14:11:31.008Z,34.60
2022-12-19T14:13:47.499Z,32.40
2022-12-19T14:15:54.332Z,34.08
2022-12-19T14:18:43.737Z,33.50
2022-12-19T14:22:10.357Z,33.78
2022-12-19T14:24:13.979Z,31.90
2022-12-19T14:28:26.720Z,33.90
2022-12-19T14:30:28.761Z,35.10
2022-12-19T14:33:39.847Z,33.08
2022-12-19T14:36:12.071Z,29.90
2022-12-19T14:39:19.704Z,31.00
2022-12-19T14:41:08.147Z,31.70
2022-12-19T14:43:59.839Z,40.90
2022-12-19T14:54:00.769Z,39.97
2022-12-19T14:54:02.163Z,45.20
2022-12-19T14:54:50.379Z,36.97
2022-12-19T14:56:16.053Z,35.47
2022-12-19T14:58:52.135Z,32.80
2022-12-19T15:01:09.148Z,36.13
2022-12-19T15:03:43.371Z,35.30
2022-12-19T15:06:49.205Z,31.95
2022-12-19T15:11:04.348Z,31.77
2022-12-19T15:14:46.547Z,30.75
2022-12-19T15:15:07.898Z,33.40
2022-12-19T15:17:44.404Z,30.13
2022-12-19T15:20:10.891Z,32.38
2022-12-19T15:22:37.506Z,30.42
2022-12-19T15:25:04.196Z,31.85
2022-12-19T15:27:31.454Z,32.97
2022-12-19T15:29:58.027Z,31.90
2022-12-19T15:32:24.359Z,34.05
2022-12-19T15:34:51.848Z,32.88
2022-12-19T15:37:18.510Z,33.63
2022-12-19T15:39:45.121Z,31.55
2022-12-19T15:42:23.265Z,32.22
2022-12-19T15:44:51.104Z,29.95
2022-12-19T15:47:21.906Z,31.13
2022-12-19T15:49:48.294Z,29.50
2022-12-19T15:52:19.527Z,29.17
2022-12-19T15:54:48.937Z,33.97
2022-12-19T15:57:29.742Z,31.13
2022-12-19T15:59:58.191Z,31.85
2022-12-19T16:02:42.640Z,33.40
2022-12-19T16:05:13.008Z,33.47
2022-12-19T16:07:39.569Z,32.75
2022-12-19T16:10:06.618Z,32.08
2022-12-19T16:12:40.120Z,30.52
2022-12-19T16:15:12.693Z,32.67
2022-12-19T16:17:39.120Z,31.23
2022-12-19T16:20:16.025Z,31.75
2022-12-19T16:22:42.515Z,31.73
2022-12-19T16:25:11.150Z,31.60
2022-12-19T16:27:37.575Z,31.02
2022-12-19T16:30:18.883Z,32.72
2022-12-19T16:32:45.892Z,31.42
2022-12-19T16:35:40.308Z,29.45
2022-12-19T16:38:08.389Z,29.05
2022-12-19T16:40:34.775Z,30.15
2022-12-19T16:43:13.863Z,29.70
2022-12-19T16:45:40.224Z,33.50
2022-12-19T16:48:21.390Z,34.03
2022-12-19T16:50:48.085Z,33.50
2022-12-19T16:53:14.931Z,31.80
2022-12-19T16:55:41.632Z,35.30
2022-12-19T16:58:13.980Z,33.15
2022-12-19T17:00:40.792Z,35.55
2022-12-19T17:03:09.614Z,34.45
2022-12-19T17:05:36.192Z,32.83
2022-12-19T17:08:02.570Z,35.00
2022-12-19T17:10:31.407Z,35.25
2022-12-19T17:12:58.783Z,33.70
2022-12-19T17:15:30.527Z,34.38
2022-12-19T17:17:59.182Z,31.52
2022-12-19T17:20:28.175Z,33.58
2022-12-19T17:22:54.714Z,30.92
2022-12-19T17:25:24.014Z,31.65
2022-12-19T17:27:51.148Z,32.38
2022-12-19T17:30:17.816Z,30.67
2022-12-19T17:32:46.989Z,31.40
2022-12-19T17:35:25.688Z,35.50
2022-12-19T17:37:55.897Z,31.75
2022-12-19T17:40:33.228Z,32.17
2022-12-19T17:43:00.133Z,31.98
2022-12-19T17:45:28.749Z,34.13
2022-12-19T17:48:02.241Z,32.20
2022-12-19T17:50:34.487Z,29.25
2022-12-19T17:53:01.087Z,31.98
2022-12-19T17:55:29.727Z,32.15
2022-12-19T17:57:56.349Z,30.77
2022-12-19T18:00:30.680Z,30.45
2022-12-19T18:02:58.894Z,30.27
2022-12-19T18:05:29.498Z,31.08
2022-12-19T18:07:55.868Z,31.20
2022-12-19T18:10:24.878Z,31.20
2022-12-19T18:12:51.925Z,34.03
2022-12-19T18:15:19.812Z,33.20
2022-12-19T18:17:47.908Z,31.55
2022-12-19T18:20:18.138Z,32.83
2022-12-19T18:22:45.033Z,35.20
2022-12-19T18:25:16.631Z,35.00
2022-12-19T18:27:44.863Z,31.90
2022-12-19T18:30:16.060Z,33.97
2022-12-19T18:32:44.517Z,31.90
2022-12-19T18:35:19.223Z,35.97
2022-12-19T18:37:46.296Z,35.55
2022-12-19T18:40:23.293Z,32.53
2022-12-19T18:42:52.483Z,37.45
2022-12-19T18:45:23.356Z,33.75
2022-12-19T18:47:54.602Z,33.85
2022-12-19T18:50:22.903Z,33.53
2022-12-19T18:52:50.583Z,33.83
2022-12-19T18:55:23.009Z,33.17
2022-12-19T18:57:49.888Z,33.13
2022-12-19T19:00:19.415Z,37.85
2022-12-19T19:02:49.017Z,35.63
2022-12-19T19:05:17.905Z,37.22
2022-12-19T19:07:44.752Z,35.45
2022-12-19T19:10:23.015Z,36.67
2022-12-19T19:12:50.487Z,37.22
2022-12-19T19:15:19.114Z,39.88
2022-12-19T19:17:47.407Z,38.22
2022-12-19T19:20:14.164Z,38.40
2022-12-19T19:22:41.417Z,37.30
2022-12-19T19:25:08.977Z,40.97
2022-12-19T19:27:35.994Z,43.45
2022-12-19T19:30:04.280Z,44.72
2022-12-19T19:32:31.571Z,49.00
2022-12-19T19:34:58.137Z,51.00
2022-12-19T19:37:24.466Z,48.75
2022-12-19T19:39:50.881Z,45.83
2022-12-19T19:42:18.722Z,45.13
2022-12-19T19:44:46.051Z,42.13
2022-12-19T19:47:12.839Z,40.72
2022-12-19T19:49:39.270Z,56.38
2022-12-19T19:52:05.658Z,50.50
2022-12-19T19:54:32.138Z,44.50
2022-12-19T19:56:58.468Z,41.22
2022-12-19T19:59:24.860Z,40.97
2022-12-19T20:01:54.173Z,39.17
2022-12-19T20:04:20.870Z,44.35
2022-12-19T20:06:47.393Z,43.67
2022-12-19T20:09:13.721Z,44.97
2022-12-19T20:11:40.066Z,45.95
2022-12-19T20:14:06.431Z,43.17
2022-12-19T20:16:33.615Z,46.00
2022-12-19T20:19:00.071Z,44.33
2022-12-19T20:21:27.012Z,40.72
2022-12-19T20:23:53.411Z,41.97
2022-12-19T20:26:20.116Z,41.47
2022-12-19T20:28:49.453Z,40.50
2022-12-19T20:31:18.824Z,39.88
2022-12-19T20:33:46.278Z,42.58
2022-12-19T20:36:13.355Z,40.15
2022-12-19T20:38:40.030Z,43.28
2022-12-19T20:41:06.739Z,43.75
2022-12-19T20:43:33.703Z,51.55
2022-12-19T20:46:01.441Z,48.95
2022-12-19T20:48:27.851Z,46.67
2022-12-19T20:50:58.372Z,43.60
2022-12-19T20:53:25.141Z,38.42
2022-12-19T20:55:58.091Z,40.05
2022-12-19T20:58:25.954Z,37.30
2022-12-19T21:00:56.848Z,38.97
2022-12-19T21:03:28.840Z,39.38
2022-12-19T21:05:55.883Z,39.78
2022-12-19T21:08:23.058Z,36.40
2022-12-19T21:10:49.595Z,38.13
2022-12-19T21:13:15.981Z,36.00
2022-12-19T21:15:42.520Z,37.20
2022-12-19T21:18:09.628Z,42.47
2022-12-19T21:20:38.469Z,39.72
2022-12-19T21:23:05.099Z,36.90
2022-12-19T21:25:31.502Z,37.85
2022-12-19T21:27:58.293Z,33.97
2022-12-19T21:30:24.948Z,36.30
2022-12-19T21:32:51.617Z,38.30
2022-12-19T21:35:18.013Z,36.85
2022-12-19T21:37:50.119Z,35.90
2022-12-19T21:40:17.216Z,32.78
2022-12-19T21:42:43.599Z,33.38
2022-12-19T21:45:10.848Z,33.33
2022-12-19T21:47:39.549Z,34.83
2022-12-19T21:50:07.659Z,31.88
2022-12-19T21:52:33.999Z,32.60
2022-12-19T21:55:00.329Z,31.83
2022-12-19T21:57:26.707Z,31.17
2022-12-19T21:59:53.181Z,30.98
2022-12-19T22:02:19.576Z,31.10
2022-12-19T22:04:46.094Z,31.10
2022-12-19T22:07:12.412Z,36.22
2022-12-19T22:09:38.787Z,34.45
2022-12-19T22:12:05.208Z,34.88
2022-12-19T22:14:31.656Z,33.35
2022-12-19T22:16:58.510Z,34.47
2022-12-19T22:19:24.869Z,32.08
2022-12-19T22:21:51.188Z,33.75
2022-12-19T22:24:17.901Z,32.17
2022-12-19T22:26:44.900Z,33.30
2022-12-19T22:29:14.267Z,33.90
2022-12-19T22:31:41.485Z,34.70
2022-12-19T22:34:10.878Z,35.35
2022-12-19T22:36:38.623Z,32.08
2022-12-19T22:39:07.044Z,33.63
2022-12-19T22:41:34.724Z,34.22
2022-12-19T22:44:01.579Z,35.78
2022-12-19T22:46:30.237Z,38.35
2022-12-19T22:48:59.204Z,34.60
2022-12-19T22:51:26.854Z,34.25
2022-12-19T22:53:53.830Z,32.83
2022-12-19T22:56:22.622Z,32.10
2022-12-19T22:58:51.500Z,33.17
2022-12-19T23:01:19.268Z,32.08
2022-12-19T23:03:47.111Z,30.13
2022-12-19T23:06:14.262Z,32.60
2022-12-19T23:08:41.356Z,33.28
2022-12-19T23:11:11.509Z,30.52
2022-12-19T23:13:39.172Z,33.20
2022-12-19T23:16:06.236Z,33.75
2022-12-19T23:18:32.921Z,29.75
2022-12-19T23:21:09.576Z,30.75
2022-12-19T23:23:42.507Z,29.65
2022-12-19T23:26:15.790Z,30.27
2022-12-19T23:28:43.887Z,28.25
2022-12-19T23:31:12.298Z,32.08
2022-12-19T23:33:38.821Z,28.95
2022-12-19T23:36:05.469Z,29.27
2022-12-19T23:38:31.985Z,30.33
2022-12-19T23:41:00.229Z,31.48
2022-12-19T23:43:26.961Z,33.72
2022-12-19T23:45:53.303Z,33.20
2022-12-19T23:48:23.700Z,33.38
2022-12-19T23:51:03.412Z,31.58
2022-12-19T23:53:30.528Z,30.33
2022-12-19T23:55:57.004Z,29.17
2022-12-19T23:58:24.775Z,31.67
